sensor_id;sensor_type;location;lat;lon;timestamp;P1;durP1;ratioP1;P2;durP2;ratioP2
3543;SDS011;1786;52.870;9.578;2023-08-31T00:00:44;9.70;;;8.67;;
3543;SDS011;1786;52.870;9.578;2023-08-31T00:03:13;12.43;;;8.80;;
3543;SDS011;1786;52.870;9.578;2023-08-31T00:05:41;9.57;;;8.30;;
3543;SDS011;1786;52.870;9.578;2023-08-31T00:08:11;9.53;;;7.60;;
3543;SDS011;1786;52.870;9.578;2023-08-31T00:10:40;12.27;;;7.90;;
3543;SDS011;1786;52.870;9.578;2023-08-31T00:13:07;11.37;;;8.27;;
3543;SDS011;1786;52.870;9.578;2023-08-31T00:15:35;8.80;;;7.47;;
3543;SDS011;1786;52.870;9.578;2023-08-31T00:18:03;8.80;;;7.90;;
3543;SDS011;1786;52.870;9.578;2023-08-31T00:20:31;9.83;;;7.53;;
3543;SDS011;1786;52.870;9.578;2023-08-31T00:22:59;8.23;;;7.27;;
3543;SDS011;1786;52.870;9.578;2023-08-31T00:25:27;7.70;;;7.07;;
3543;SDS011;1786;52.870;9.578;2023-08-31T00:27:56;10.23;;;8.00;;
3543;SDS011;1786;52.870;9.578;2023-08-31T00:30:23;9.33;;;7.93;;
3543;SDS011;1786;52.870;9.578;2023-08-31T00:32:55;8.97;;;7.50;;
3543;SDS011;1786;52.870;9.578;2023-08-31T00:35:27;10.53;;;7.60;;
3543;SDS011;1786;52.870;9.578;2023-08-31T00:37:56;7.37;;;6.67;;
3543;SDS011;1786;52.870;9.578;2023-08-31T00:40:25;16.00;;;7.20;;
3543;SDS011;1786;52.870;9.578;2023-08-31T00:43:13;8.03;;;7.20;;
3543;SDS011;1786;52.870;9.578;2023-08-31T00:45:51;10.53;;;7.20;;
3543;SDS011;1786;52.870;9.578;2023-08-31T00:48:22;13.90;;;7.13;;
3543;SDS011;1786;52.870;9.578;2023-08-31T00:50:49;7.27;;;6.57;;
3543;SDS011;1786;52.870;9.578;2023-08-31T00:53:19;7.07;;;6.40;;
3543;SDS011;1786;52.870;9.578;2023-08-31T00:55:46;8.30;;;6.90;;
3543;SDS011;1786;52.870;9.578;2023-08-31T00:58:14;15.50;;;7.47;;
3543;SDS011;1786;52.870;9.578;2023-08-31T01:03:35;9.13;;;7.77;;
3543;SDS011;1786;52.870;9.578;2023-08-31T01:06:12;12.93;;;7.53;;
3543;SDS011;1786;52.870;9.578;2023-08-31T01:12:06;10.47;;;6.87;;
3543;SDS011;1786;52.870;9.578;2023-08-31T01:14:41;11.80;;;7.37;;
3543;SDS011;1786;52.870;9.578;2023-08-31T01:17:12;11.20;;;7.07;;
3543;SDS011;1786;52.870;9.578;2023-08-31T01:24:54;9.10;;;6.80;;
3543;SDS011;1786;52.870;9.578;2023-08-31T01:27:21;7.40;;;6.70;;
3543;SDS011;1786;52.870;9.578;2023-08-31T01:29:48;20.10;;;7.53;;
3543;SDS011;1786;52.870;9.578;2023-08-31T01:32:15;9.37;;;7.57;;
3543;SDS011;1786;52.870;9.578;2023-08-31T01:34:41;8.27;;;7.43;;
3543;SDS011;1786;52.870;9.578;2023-08-31T01:37:10;12.40;;;7.33;;
3543;SDS011;1786;52.870;9.578;2023-08-31T01:39:46;9.93;;;7.37;;
3543;SDS011;1786;52.870;9.578;2023-08-31T01:42:18;13.33;;;6.50;;
3543;SDS011;1786;52.870;9.578;2023-08-31T01:44:47;9.73;;;6.83;;
3543;SDS011;1786;52.870;9.578;2023-08-31T01:47:15;7.50;;;6.77;;
3543;SDS011;1786;52.870;9.578;2023-08-31T01:49:44;14.13;;;6.77;;
3543;SDS011;1786;52.870;9.578;2023-08-31T01:52:11;12.13;;;6.17;;
3543;SDS011;1786;52.870;9.578;2023-08-31T01:54:38;15.27;;;7.40;;
3543;SDS011;1786;52.870;9.578;2023-08-31T01:57:06;7.20;;;6.50;;
3543;SDS011;1786;52.870;9.578;2023-08-31T01:59:43;13.20;;;6.80;;
3543;SDS011;1786;52.870;9.578;2023-08-31T02:02:10;11.73;;;7.10;;
3543;SDS011;1786;52.870;9.578;2023-08-31T02:04:37;16.73;;;7.03;;
3543;SDS011;1786;52.870;9.578;2023-08-31T02:07:04;10.27;;;6.37;;
3543;SDS011;1786;52.870;9.578;2023-08-31T02:09:32;8.40;;;6.87;;
3543;SDS011;1786;52.870;9.578;2023-08-31T02:11:59;11.60;;;6.70;;
3543;SDS011;1786;52.870;9.578;2023-08-31T02:14:26;9.63;;;6.57;;
3543;SDS011;1786;52.870;9.578;2023-08-31T02:16:56;7.40;;;6.30;;
3543;SDS011;1786;52.870;9.578;2023-08-31T02:19:24;6.63;;;5.90;;
3543;SDS011;1786;52.870;9.578;2023-08-31T02:21:51;7.80;;;6.63;;
3543;SDS011;1786;52.870;9.578;2023-08-31T02:24:18;12.50;;;5.83;;
3543;SDS011;1786;52.870;9.578;2023-08-31T02:26:47;13.53;;;7.40;;
3543;SDS011;1786;52.870;9.578;2023-08-31T02:29:14;8.90;;;7.10;;
3543;SDS011;1786;52.870;9.578;2023-08-31T02:31:41;6.83;;;6.13;;
3543;SDS011;1786;52.870;9.578;2023-08-31T02:34:29;9.50;;;6.47;;
3543;SDS011;1786;52.870;9.578;2023-08-31T02:36:57;10.70;;;6.53;;
3543;SDS011;1786;52.870;9.578;2023-08-31T02:39:26;13.00;;;6.00;;
3543;SDS011;1786;52.870;9.578;2023-08-31T02:41:53;13.67;;;6.90;;
3543;SDS011;1786;52.870;9.578;2023-08-31T02:44:20;14.77;;;6.90;;
3543;SDS011;1786;52.870;9.578;2023-08-31T02:46:48;12.10;;;6.67;;
3543;SDS011;1786;52.870;9.578;2023-08-31T02:49:15;17.60;;;6.50;;
3543;SDS011;1786;52.870;9.578;2023-08-31T02:51:42;7.83;;;7.00;;
3543;SDS011;1786;52.870;9.578;2023-08-31T02:54:08;11.23;;;6.33;;
3543;SDS011;1786;52.870;9.578;2023-08-31T02:56:35;8.03;;;6.20;;
3543;SDS011;1786;52.870;9.578;2023-08-31T02:59:02;11.07;;;6.80;;
3543;SDS011;1786;52.870;9.578;2023-08-31T03:01:29;12.23;;;6.90;;
3543;SDS011;1786;52.870;9.578;2023-08-31T03:03:55;13.30;;;6.83;;
3543;SDS011;1786;52.870;9.578;2023-08-31T03:06:22;11.17;;;6.80;;
3543;SDS011;1786;52.870;9.578;2023-08-31T03:08:49;13.50;;;5.93;;
3543;SDS011;1786;52.870;9.578;2023-08-31T03:11:16;15.80;;;6.27;;
3543;SDS011;1786;52.870;9.578;2023-08-31T03:13:43;13.70;;;6.20;;
3543;SDS011;1786;52.870;9.578;2023-08-31T03:16:11;11.27;;;6.13;;
3543;SDS011;1786;52.870;9.578;2023-08-31T03:18:38;11.93;;;6.60;;
3543;SDS011;1786;52.870;9.578;2023-08-31T03:21:05;10.50;;;6.47;;
3543;SDS011;1786;52.870;9.578;2023-08-31T03:23:32;7.83;;;6.20;;
3543;SDS011;1786;52.870;9.578;2023-08-31T03:25:59;8.70;;;6.43;;
3543;SDS011;1786;52.870;9.578;2023-08-31T03:28:27;6.77;;;6.10;;
3543;SDS011;1786;52.870;9.578;2023-08-31T03:30:54;7.50;;;6.20;;
3543;SDS011;1786;52.870;9.578;2023-08-31T03:33:25;14.10;;;6.37;;
3543;SDS011;1786;52.870;9.578;2023-08-31T03:35:52;12.23;;;6.43;;
3543;SDS011;1786;52.870;9.578;2023-08-31T03:38:19;12.83;;;6.90;;
3543;SDS011;1786;52.870;9.578;2023-08-31T03:40:53;11.63;;;6.30;;
3543;SDS011;1786;52.870;9.578;2023-08-31T03:43:21;9.03;;;7.70;;
3543;SDS011;1786;52.870;9.578;2023-08-31T03:45:53;9.83;;;7.77;;
3543;SDS011;1786;52.870;9.578;2023-08-31T03:48:23;11.10;;;7.30;;
3543;SDS011;1786;52.870;9.578;2023-08-31T03:50:51;11.70;;;8.00;;
3543;SDS011;1786;52.870;9.578;2023-08-31T03:53:18;10.77;;;8.10;;
3543;SDS011;1786;52.870;9.578;2023-08-31T03:55:45;10.63;;;7.90;;
3543;SDS011;1786;52.870;9.578;2023-08-31T03:58:14;12.80;;;7.80;;
3543;SDS011;1786;52.870;9.578;2023-08-31T04:00:43;11.30;;;8.00;;
3543;SDS011;1786;52.870;9.578;2023-08-31T04:03:10;20.03;;;8.20;;
3543;SDS011;1786;52.870;9.578;2023-08-31T04:05:38;15.23;;;7.63;;
3543;SDS011;1786;52.870;9.578;2023-08-31T04:08:05;12.20;;;8.07;;
3543;SDS011;1786;52.870;9.578;2023-08-31T04:10:34;13.00;;;7.80;;
3543;SDS011;1786;52.870;9.578;2023-08-31T04:13:07;17.50;;;7.90;;
3543;SDS011;1786;52.870;9.578;2023-08-31T04:15:34;12.47;;;9.63;;
3543;SDS011;1786;52.870;9.578;2023-08-31T04:18:01;15.93;;;7.33;;
3543;SDS011;1786;52.870;9.578;2023-08-31T04:20:28;14.97;;;8.10;;
3543;SDS011;1786;52.870;9.578;2023-08-31T04:22:55;12.77;;;8.20;;
3543;SDS011;1786;52.870;9.578;2023-08-31T04:25:21;10.50;;;7.60;;
3543;SDS011;1786;52.870;9.578;2023-08-31T04:27:48;12.37;;;7.17;;
3543;SDS011;1786;52.870;9.578;2023-08-31T04:30:15;9.10;;;7.63;;
3543;SDS011;1786;52.870;9.578;2023-08-31T04:32:43;15.93;;;6.80;;
3543;SDS011;1786;52.870;9.578;2023-08-31T04:35:11;10.53;;;7.57;;
3543;SDS011;1786;52.870;9.578;2023-08-31T04:37:37;12.20;;;7.50;;
3543;SDS011;1786;52.870;9.578;2023-08-31T04:40:04;8.63;;;7.23;;
3543;SDS011;1786;52.870;9.578;2023-08-31T04:42:32;19.90;;;7.10;;
3543;SDS011;1786;52.870;9.578;2023-08-31T04:44:59;10.30;;;7.87;;
3543;SDS011;1786;52.870;9.578;2023-08-31T04:47:26;14.73;;;7.27;;
3543;SDS011;1786;52.870;9.578;2023-08-31T04:49:53;11.10;;;7.50;;
3543;SDS011;1786;52.870;9.578;2023-08-31T04:52:20;10.43;;;7.60;;
3543;SDS011;1786;52.870;9.578;2023-08-31T04:54:46;14.40;;;8.50;;
3543;SDS011;1786;52.870;9.578;2023-08-31T04:57:13;11.23;;;7.63;;
3543;SDS011;1786;52.870;9.578;2023-08-31T04:59:40;17.10;;;7.57;;
3543;SDS011;1786;52.870;9.578;2023-08-31T05:02:06;9.20;;;7.77;;
3543;SDS011;1786;52.870;9.578;2023-08-31T05:04:33;13.10;;;7.03;;
3543;SDS011;1786;52.870;9.578;2023-08-31T05:06:59;8.43;;;7.30;;
3543;SDS011;1786;52.870;9.578;2023-08-31T05:09:26;16.73;;;6.83;;
3543;SDS011;1786;52.870;9.578;2023-08-31T05:11:53;10.13;;;7.33;;
3543;SDS011;1786;52.870;9.578;2023-08-31T05:14:19;8.40;;;6.57;;
3543;SDS011;1786;52.870;9.578;2023-08-31T05:16:46;15.07;;;7.40;;
3543;SDS011;1786;52.870;9.578;2023-08-31T05:19:14;11.03;;;7.37;;
3543;SDS011;1786;52.870;9.578;2023-08-31T05:21:40;10.93;;;7.53;;
3543;SDS011;1786;52.870;9.578;2023-08-31T05:24:07;7.30;;;6.17;;
3543;SDS011;1786;52.870;9.578;2023-08-31T05:26:34;7.97;;;6.20;;
3543;SDS011;1786;52.870;9.578;2023-08-31T05:29:00;9.17;;;6.10;;
3543;SDS011;1786;52.870;9.578;2023-08-31T05:31:27;8.00;;;5.83;;
3543;SDS011;1786;52.870;9.578;2023-08-31T05:33:54;7.73;;;5.70;;
3543;SDS011;1786;52.870;9.578;2023-08-31T05:36:21;6.57;;;5.20;;
3543;SDS011;1786;52.870;9.578;2023-08-31T05:38:47;4.53;;;4.13;;
3543;SDS011;1786;52.870;9.578;2023-08-31T05:41:14;9.47;;;4.73;;
3543;SDS011;1786;52.870;9.578;2023-08-31T05:43:41;11.50;;;4.80;;
3543;SDS011;1786;52.870;9.578;2023-08-31T05:46:08;7.93;;;4.83;;
3543;SDS011;1786;52.870;9.578;2023-08-31T05:48:35;7.20;;;4.13;;
3543;SDS011;1786;52.870;9.578;2023-08-31T05:51:03;3.77;;;3.50;;
3543;SDS011;1786;52.870;9.578;2023-08-31T05:53:32;8.83;;;4.57;;
3543;SDS011;1786;52.870;9.578;2023-08-31T05:56:00;9.13;;;4.13;;
3543;SDS011;1786;52.870;9.578;2023-08-31T05:58:31;4.43;;;4.03;;
3543;SDS011;1786;52.870;9.578;2023-08-31T06:00:59;4.60;;;4.30;;
3543;SDS011;1786;52.870;9.578;2023-08-31T06:03:27;5.83;;;4.60;;
3543;SDS011;1786;52.870;9.578;2023-08-31T06:05:54;5.97;;;5.37;;
3543;SDS011;1786;52.870;9.578;2023-08-31T06:08:22;8.50;;;5.20;;
3543;SDS011;1786;52.870;9.578;2023-08-31T06:10:49;10.40;;;5.07;;
3543;SDS011;1786;52.870;9.578;2023-08-31T06:13:16;7.93;;;5.13;;
3543;SDS011;1786;52.870;9.578;2023-08-31T06:15:43;8.53;;;5.90;;
3543;SDS011;1786;52.870;9.578;2023-08-31T06:18:11;7.50;;;6.10;;
3543;SDS011;1786;52.870;9.578;2023-08-31T06:20:38;8.00;;;5.63;;
3543;SDS011;1786;52.870;9.578;2023-08-31T06:23:05;7.20;;;6.33;;
3543;SDS011;1786;52.870;9.578;2023-08-31T06:25:31;9.87;;;5.90;;
3543;SDS011;1786;52.870;9.578;2023-08-31T06:27:58;7.70;;;6.80;;
3543;SDS011;1786;52.870;9.578;2023-08-31T06:30:25;6.93;;;5.60;;
3543;SDS011;1786;52.870;9.578;2023-08-31T06:32:52;8.53;;;6.63;;
3543;SDS011;1786;52.870;9.578;2023-08-31T06:35:19;9.07;;;7.50;;
3543;SDS011;1786;52.870;9.578;2023-08-31T06:37:47;6.40;;;5.90;;
3543;SDS011;1786;52.870;9.578;2023-08-31T06:40:14;7.50;;;6.10;;
3543;SDS011;1786;52.870;9.578;2023-08-31T06:42:40;8.60;;;6.40;;
3543;SDS011;1786;52.870;9.578;2023-08-31T06:45:07;10.23;;;6.23;;
3543;SDS011;1786;52.870;9.578;2023-08-31T06:47:34;7.23;;;6.57;;
3543;SDS011;1786;52.870;9.578;2023-08-31T06:50:01;7.00;;;6.40;;
3543;SDS011;1786;52.870;9.578;2023-08-31T06:52:29;7.83;;;6.10;;
3543;SDS011;1786;52.870;9.578;2023-08-31T06:54:58;8.90;;;6.07;;
3543;SDS011;1786;52.870;9.578;2023-08-31T06:57:26;8.87;;;6.77;;
3543;SDS011;1786;52.870;9.578;2023-08-31T06:59:53;7.53;;;6.83;;
3543;SDS011;1786;52.870;9.578;2023-08-31T07:02:21;11.40;;;7.03;;
3543;SDS011;1786;52.870;9.578;2023-08-31T07:04:51;8.03;;;6.90;;
3543;SDS011;1786;52.870;9.578;2023-08-31T07:07:19;11.70;;;6.43;;
3543;SDS011;1786;52.870;9.578;2023-08-31T07:09:46;8.27;;;7.47;;
3543;SDS011;1786;52.870;9.578;2023-08-31T07:12:14;10.20;;;6.00;;
3543;SDS011;1786;52.870;9.578;2023-08-31T07:14:41;6.60;;;5.97;;
3543;SDS011;1786;52.870;9.578;2023-08-31T07:17:08;6.40;;;5.90;;
3543;SDS011;1786;52.870;9.578;2023-08-31T07:19:35;8.90;;;6.97;;
3543;SDS011;1786;52.870;9.578;2023-08-31T07:22:03;12.03;;;7.10;;
3543;SDS011;1786;52.870;9.578;2023-08-31T07:24:32;8.47;;;7.30;;
3543;SDS011;1786;52.870;9.578;2023-08-31T07:27:02;11.40;;;7.90;;
3543;SDS011;1786;52.870;9.578;2023-08-31T07:29:29;10.43;;;7.37;;
3543;SDS011;1786;52.870;9.578;2023-08-31T07:31:56;8.90;;;7.50;;
3543;SDS011;1786;52.870;9.578;2023-08-31T07:34:23;10.77;;;8.00;;
3543;SDS011;1786;52.870;9.578;2023-08-31T07:36:50;9.80;;;7.53;;
3543;SDS011;1786;52.870;9.578;2023-08-31T07:39:17;8.17;;;7.47;;
3543;SDS011;1786;52.870;9.578;2023-08-31T07:41:46;13.20;;;6.83;;
3543;SDS011;1786;52.870;9.578;2023-08-31T07:44:13;11.03;;;8.43;;
3543;SDS011;1786;52.870;9.578;2023-08-31T07:46:40;15.67;;;9.47;;
3543;SDS011;1786;52.870;9.578;2023-08-31T07:49:06;8.90;;;8.00;;
3543;SDS011;1786;52.870;9.578;2023-08-31T07:51:33;12.13;;;9.20;;
3543;SDS011;1786;52.870;9.578;2023-08-31T07:54:00;11.20;;;8.80;;
3543;SDS011;1786;52.870;9.578;2023-08-31T07:56:29;8.87;;;8.03;;
3543;SDS011;1786;52.870;9.578;2023-08-31T07:58:56;10.50;;;8.00;;
3543;SDS011;1786;52.870;9.578;2023-08-31T08:01:23;11.40;;;9.17;;
3543;SDS011;1786;52.870;9.578;2023-08-31T08:03:50;10.80;;;9.80;;
3543;SDS011;1786;52.870;9.578;2023-08-31T08:06:17;10.90;;;9.80;;
3543;SDS011;1786;52.870;9.578;2023-08-31T08:08:44;11.73;;;10.63;;
3543;SDS011;1786;52.870;9.578;2023-08-31T08:11:11;12.07;;;10.70;;
3543;SDS011;1786;52.870;9.578;2023-08-31T08:13:37;11.27;;;9.87;;
3543;SDS011;1786;52.870;9.578;2023-08-31T08:16:04;11.43;;;9.40;;
3543;SDS011;1786;52.870;9.578;2023-08-31T08:18:31;13.87;;;9.50;;
3543;SDS011;1786;52.870;9.578;2023-08-31T08:20:58;12.07;;;9.80;;
3543;SDS011;1786;52.870;9.578;2023-08-31T08:23:25;11.87;;;10.00;;
3543;SDS011;1786;52.870;9.578;2023-08-31T08:25:51;11.97;;;10.77;;
3543;SDS011;1786;52.870;9.578;2023-08-31T08:28:18;14.67;;;11.80;;
3543;SDS011;1786;52.870;9.578;2023-08-31T08:30:44;14.10;;;12.10;;
3543;SDS011;1786;52.870;9.578;2023-08-31T08:33:11;12.80;;;11.60;;
3543;SDS011;1786;52.870;9.578;2023-08-31T08:35:38;16.07;;;11.47;;
3543;SDS011;1786;52.870;9.578;2023-08-31T08:38:05;12.33;;;10.60;;
3543;SDS011;1786;52.870;9.578;2023-08-31T08:40:32;17.03;;;11.37;;
3543;SDS011;1786;52.870;9.578;2023-08-31T08:43:00;13.80;;;11.00;;
3543;SDS011;1786;52.870;9.578;2023-08-31T08:45:35;11.13;;;9.90;;
3543;SDS011;1786;52.870;9.578;2023-08-31T08:48:06;15.73;;;11.17;;
3543;SDS011;1786;52.870;9.578;2023-08-31T08:50:36;14.50;;;11.77;;
3543;SDS011;1786;52.870;9.578;2023-08-31T08:53:04;12.70;;;11.40;;
3543;SDS011;1786;52.870;9.578;2023-08-31T08:55:31;15.67;;;10.27;;
3543;SDS011;1786;52.870;9.578;2023-08-31T08:57:59;12.10;;;10.90;;
3543;SDS011;1786;52.870;9.578;2023-08-31T09:00:27;13.80;;;11.00;;
3543;SDS011;1786;52.870;9.578;2023-08-31T09:02:56;12.73;;;11.23;;
3543;SDS011;1786;52.870;9.578;2023-08-31T09:05:25;15.70;;;12.10;;
3543;SDS011;1786;52.870;9.578;2023-08-31T09:10:40;13.90;;;12.00;;
3543;SDS011;1786;52.870;9.578;2023-08-31T09:13:09;12.97;;;11.23;;
3543;SDS011;1786;52.870;9.578;2023-08-31T09:15:42;13.87;;;11.10;;
3543;SDS011;1786;52.870;9.578;2023-08-31T09:18:14;15.73;;;11.83;;
3543;SDS011;1786;52.870;9.578;2023-08-31T09:20:43;15.60;;;11.67;;
3543;SDS011;1786;52.870;9.578;2023-08-31T09:23:11;19.20;;;12.90;;
3543;SDS011;1786;52.870;9.578;2023-08-31T09:25:43;13.53;;;11.60;;
3543;SDS011;1786;52.870;9.578;2023-08-31T09:28:16;16.37;;;11.80;;
3543;SDS011;1786;52.870;9.578;2023-08-31T09:30:48;13.10;;;11.80;;
3543;SDS011;1786;52.870;9.578;2023-08-31T09:33:17;11.80;;;10.60;;
3543;SDS011;1786;52.870;9.578;2023-08-31T09:35:51;16.63;;;13.30;;
3543;SDS011;1786;52.870;9.578;2023-08-31T09:38:23;12.27;;;11.07;;
3543;SDS011;1786;52.870;9.578;2023-08-31T09:40:50;11.17;;;9.70;;
3543;SDS011;1786;52.870;9.578;2023-08-31T09:43:20;10.00;;;9.00;;
3543;SDS011;1786;52.870;9.578;2023-08-31T09:45:49;11.20;;;10.10;;
3543;SDS011;1786;52.870;9.578;2023-08-31T09:48:17;7.97;;;7.20;;
3543;SDS011;1786;52.870;9.578;2023-08-31T09:50:44;8.57;;;7.57;;
3543;SDS011;1786;52.870;9.578;2023-08-31T09:53:12;7.13;;;6.43;;
3543;SDS011;1786;52.870;9.578;2023-08-31T09:55:41;9.20;;;6.90;;
3543;SDS011;1786;52.870;9.578;2023-08-31T09:58:09;8.03;;;7.33;;
3543;SDS011;1786;52.870;9.578;2023-08-31T10:00:42;7.63;;;6.93;;
3543;SDS011;1786;52.870;9.578;2023-08-31T10:03:10;8.03;;;6.67;;
3543;SDS011;1786;52.870;9.578;2023-08-31T10:05:46;8.23;;;7.40;;
3543;SDS011;1786;52.870;9.578;2023-08-31T10:08:14;14.10;;;7.27;;
3543;SDS011;1786;52.870;9.578;2023-08-31T10:10:42;7.60;;;6.80;;
3543;SDS011;1786;52.870;9.578;2023-08-31T10:13:10;7.90;;;6.77;;
3543;SDS011;1786;52.870;9.578;2023-08-31T10:15:38;9.07;;;5.73;;
3543;SDS011;1786;52.870;9.578;2023-08-31T10:18:07;5.17;;;4.57;;
3543;SDS011;1786;52.870;9.578;2023-08-31T10:20:34;7.13;;;4.53;;
3543;SDS011;1786;52.870;9.578;2023-08-31T10:23:02;6.30;;;4.73;;
3543;SDS011;1786;52.870;9.578;2023-08-31T10:28:18;3.67;;;3.47;;
3543;SDS011;1786;52.870;9.578;2023-08-31T10:31:05;8.90;;;3.63;;
3543;SDS011;1786;52.870;9.578;2023-08-31T10:33:34;4.10;;;3.53;;
3543;SDS011;1786;52.870;9.578;2023-08-31T10:36:15;3.40;;;3.13;;
3543;SDS011;1786;52.870;9.578;2023-08-31T10:41:21;3.13;;;2.87;;
3543;SDS011;1786;52.870;9.578;2023-08-31T10:43:56;3.73;;;3.03;;
3543;SDS011;1786;52.870;9.578;2023-08-31T10:46:37;2.53;;;2.43;;
3543;SDS011;1786;52.870;9.578;2023-08-31T10:51:37;5.50;;;2.20;;
3543;SDS011;1786;52.870;9.578;2023-08-31T10:54:06;4.67;;;2.73;;
3543;SDS011;1786;52.870;9.578;2023-08-31T10:56:33;2.63;;;2.53;;
3543;SDS011;1786;52.870;9.578;2023-08-31T10:59:00;3.60;;;2.40;;
3543;SDS011;1786;52.870;9.578;2023-08-31T11:01:50;2.57;;;2.47;;
3543;SDS011;1786;52.870;9.578;2023-08-31T11:04:29;3.67;;;2.33;;
3543;SDS011;1786;52.870;9.578;2023-08-31T11:07:12;2.07;;;1.90;;
3543;SDS011;1786;52.870;9.578;2023-08-31T11:09:40;1.90;;;1.53;;
3543;SDS011;1786;52.870;9.578;2023-08-31T11:12:07;4.93;;;1.60;;
3543;SDS011;1786;52.870;9.578;2023-08-31T11:14:35;1.47;;;1.37;;
3543;SDS011;1786;52.870;9.578;2023-08-31T11:17:02;3.03;;;1.27;;
3543;SDS011;1786;52.870;9.578;2023-08-31T11:19:33;2.70;;;1.30;;
3543;SDS011;1786;52.870;9.578;2023-08-31T11:22:01;3.43;;;1.50;;
3543;SDS011;1786;52.870;9.578;2023-08-31T11:24:30;1.87;;;1.40;;
3543;SDS011;1786;52.870;9.578;2023-08-31T11:26:58;3.33;;;1.97;;
3543;SDS011;1786;52.870;9.578;2023-08-31T11:29:25;4.60;;;1.60;;
3543;SDS011;1786;52.870;9.578;2023-08-31T11:31:51;3.17;;;1.57;;
3543;SDS011;1786;52.870;9.578;2023-08-31T11:34:18;1.03;;;1.03;;
3543;SDS011;1786;52.870;9.578;2023-08-31T11:36:46;1.00;;;1.00;;
3543;SDS011;1786;52.870;9.578;2023-08-31T11:39:13;2.07;;;1.20;;
3543;SDS011;1786;52.870;9.578;2023-08-31T11:41:40;1.73;;;1.30;;
3543;SDS011;1786;52.870;9.578;2023-08-31T11:44:12;2.20;;;1.20;;
3543;SDS011;1786;52.870;9.578;2023-08-31T11:46:40;2.00;;;0.97;;
3543;SDS011;1786;52.870;9.578;2023-08-31T11:49:09;1.60;;;0.90;;
3543;SDS011;1786;52.870;9.578;2023-08-31T11:51:36;2.33;;;1.00;;
3543;SDS011;1786;52.870;9.578;2023-08-31T11:54:06;1.33;;;1.00;;
3543;SDS011;1786;52.870;9.578;2023-08-31T11:59:10;5.17;;;1.17;;
3543;SDS011;1786;52.870;9.578;2023-08-31T12:01:40;1.30;;;1.20;;
3543;SDS011;1786;52.870;9.578;2023-08-31T12:04:12;3.23;;;1.20;;
3543;SDS011;1786;52.870;9.578;2023-08-31T12:06:40;1.13;;;0.90;;
3543;SDS011;1786;52.870;9.578;2023-08-31T12:09:08;2.73;;;1.00;;
3543;SDS011;1786;52.870;9.578;2023-08-31T12:11:36;2.30;;;1.10;;
3543;SDS011;1786;52.870;9.578;2023-08-31T12:14:03;1.80;;;1.10;;
3543;SDS011;1786;52.870;9.578;2023-08-31T12:16:44;1.00;;;0.90;;
3543;SDS011;1786;52.870;9.578;2023-08-31T12:19:12;2.40;;;1.10;;
3543;SDS011;1786;52.870;9.578;2023-08-31T12:21:39;2.10;;;0.80;;
3543;SDS011;1786;52.870;9.578;2023-08-31T12:24:06;1.97;;;1.00;;
3543;SDS011;1786;52.870;9.578;2023-08-31T12:26:33;2.40;;;0.80;;
3543;SDS011;1786;52.870;9.578;2023-08-31T12:29:01;1.40;;;0.97;;
3543;SDS011;1786;52.870;9.578;2023-08-31T12:31:31;2.13;;;0.87;;
3543;SDS011;1786;52.870;9.578;2023-08-31T12:33:59;1.43;;;0.70;;
3543;SDS011;1786;52.870;9.578;2023-08-31T12:36:27;1.13;;;0.80;;
3543;SDS011;1786;52.870;9.578;2023-08-31T12:38:53;1.93;;;0.93;;
3543;SDS011;1786;52.870;9.578;2023-08-31T12:41:20;0.70;;;0.70;;
3543;SDS011;1786;52.870;9.578;2023-08-31T12:43:50;1.90;;;0.97;;
3543;SDS011;1786;52.870;9.578;2023-08-31T12:46:17;1.13;;;0.80;;
3543;SDS011;1786;52.870;9.578;2023-08-31T12:48:43;0.80;;;0.77;;
3543;SDS011;1786;52.870;9.578;2023-08-31T12:51:10;1.40;;;0.80;;
3543;SDS011;1786;52.870;9.578;2023-08-31T12:53:37;1.07;;;0.67;;
3543;SDS011;1786;52.870;9.578;2023-08-31T12:56:05;0.93;;;0.93;;
3543;SDS011;1786;52.870;9.578;2023-08-31T12:58:32;1.33;;;0.70;;
3543;SDS011;1786;52.870;9.578;2023-08-31T13:00:59;3.57;;;0.87;;
3543;SDS011;1786;52.870;9.578;2023-08-31T13:03:26;5.53;;;1.40;;
3543;SDS011;1786;52.870;9.578;2023-08-31T13:05:53;4.97;;;1.00;;
3543;SDS011;1786;52.870;9.578;2023-08-31T13:08:20;2.87;;;1.60;;
3543;SDS011;1786;52.870;9.578;2023-08-31T13:10:53;5.33;;;1.37;;
3543;SDS011;1786;52.870;9.578;2023-08-31T13:13:20;0.80;;;0.80;;
3543;SDS011;1786;52.870;9.578;2023-08-31T13:15:49;0.80;;;0.80;;
3543;SDS011;1786;52.870;9.578;2023-08-31T13:18:16;4.63;;;1.00;;
3543;SDS011;1786;52.870;9.578;2023-08-31T13:20:52;2.40;;;0.90;;
3543;SDS011;1786;52.870;9.578;2023-08-31T13:23:20;0.70;;;0.70;;
3543;SDS011;1786;52.870;9.578;2023-08-31T13:25:47;3.43;;;0.83;;
3543;SDS011;1786;52.870;9.578;2023-08-31T13:28:14;0.90;;;0.83;;
3543;SDS011;1786;52.870;9.578;2023-08-31T13:30:41;3.10;;;0.93;;
3543;SDS011;1786;52.870;9.578;2023-08-31T13:33:09;8.50;;;1.50;;
3543;SDS011;1786;52.870;9.578;2023-08-31T13:35:36;2.37;;;1.10;;
3543;SDS011;1786;52.870;9.578;2023-08-31T13:38:03;0.70;;;0.70;;
3543;SDS011;1786;52.870;9.578;2023-08-31T13:40:30;2.03;;;0.80;;
3543;SDS011;1786;52.870;9.578;2023-08-31T13:43:00;1.00;;;1.00;;
3543;SDS011;1786;52.870;9.578;2023-08-31T13:45:30;1.00;;;0.90;;
3543;SDS011;1786;52.870;9.578;2023-08-31T13:48:00;1.50;;;0.90;;
3543;SDS011;1786;52.870;9.578;2023-08-31T13:50:27;1.07;;;0.87;;
3543;SDS011;1786;52.870;9.578;2023-08-31T13:52:54;3.43;;;1.10;;
3543;SDS011;1786;52.870;9.578;2023-08-31T13:55:21;3.03;;;0.93;;
3543;SDS011;1786;52.870;9.578;2023-08-31T13:57:48;0.60;;;0.60;;
3543;SDS011;1786;52.870;9.578;2023-08-31T14:00:16;5.90;;;0.80;;
3543;SDS011;1786;52.870;9.578;2023-08-31T14:02:43;0.70;;;0.70;;
3543;SDS011;1786;52.870;9.578;2023-08-31T14:05:11;1.80;;;0.97;;
3543;SDS011;1786;52.870;9.578;2023-08-31T14:07:38;0.80;;;0.80;;
3543;SDS011;1786;52.870;9.578;2023-08-31T14:10:05;0.73;;;0.73;;
3543;SDS011;1786;52.870;9.578;2023-08-31T14:12:33;2.63;;;1.10;;
3543;SDS011;1786;52.870;9.578;2023-08-31T14:15:01;3.23;;;0.90;;
3543;SDS011;1786;52.870;9.578;2023-08-31T14:17:31;2.10;;;0.67;;
3543;SDS011;1786;52.870;9.578;2023-08-31T14:19:58;0.73;;;0.73;;
3543;SDS011;1786;52.870;9.578;2023-08-31T14:22:27;2.20;;;1.03;;
3543;SDS011;1786;52.870;9.578;2023-08-31T14:24:55;0.80;;;0.80;;
3543;SDS011;1786;52.870;9.578;2023-08-31T14:27:21;1.57;;;0.93;;
3543;SDS011;1786;52.870;9.578;2023-08-31T14:29:49;3.30;;;0.97;;
3543;SDS011;1786;52.870;9.578;2023-08-31T14:32:16;1.93;;;0.80;;
3543;SDS011;1786;52.870;9.578;2023-08-31T14:34:42;1.70;;;0.70;;
3543;SDS011;1786;52.870;9.578;2023-08-31T14:37:09;1.17;;;0.70;;
3543;SDS011;1786;52.870;9.578;2023-08-31T14:39:36;0.73;;;0.73;;
3543;SDS011;1786;52.870;9.578;2023-08-31T14:42:03;1.00;;;0.90;;
3543;SDS011;1786;52.870;9.578;2023-08-31T14:44:30;1.03;;;0.70;;
3543;SDS011;1786;52.870;9.578;2023-08-31T14:46:57;0.87;;;0.87;;
3543;SDS011;1786;52.870;9.578;2023-08-31T14:49:23;1.43;;;1.00;;
3543;SDS011;1786;52.870;9.578;2023-08-31T14:51:53;1.73;;;0.80;;
3543;SDS011;1786;52.870;9.578;2023-08-31T14:54:19;1.07;;;0.70;;
3543;SDS011;1786;52.870;9.578;2023-08-31T14:56:46;0.67;;;0.67;;
3543;SDS011;1786;52.870;9.578;2023-08-31T14:59:13;0.70;;;0.60;;
3543;SDS011;1786;52.870;9.578;2023-08-31T15:01:39;1.43;;;0.90;;
3543;SDS011;1786;52.870;9.578;2023-08-31T15:04:06;0.70;;;0.70;;
3543;SDS011;1786;52.870;9.578;2023-08-31T15:06:33;0.80;;;0.70;;
3543;SDS011;1786;52.870;9.578;2023-08-31T15:09:00;1.43;;;0.70;;
3543;SDS011;1786;52.870;9.578;2023-08-31T15:11:27;6.10;;;0.80;;
3543;SDS011;1786;52.870;9.578;2023-08-31T15:13:55;1.70;;;0.80;;
3543;SDS011;1786;52.870;9.578;2023-08-31T15:16:22;0.90;;;0.90;;
3543;SDS011;1786;52.870;9.578;2023-08-31T15:18:49;2.83;;;0.80;;
3543;SDS011;1786;52.870;9.578;2023-08-31T15:21:16;1.00;;;0.90;;
3543;SDS011;1786;52.870;9.578;2023-08-31T15:23:43;1.00;;;1.00;;
3543;SDS011;1786;52.870;9.578;2023-08-31T15:26:11;2.43;;;1.00;;
3543;SDS011;1786;52.870;9.578;2023-08-31T15:28:41;1.23;;;0.77;;
3543;SDS011;1786;52.870;9.578;2023-08-31T15:31:07;1.03;;;0.80;;
3543;SDS011;1786;52.870;9.578;2023-08-31T15:33:34;0.70;;;0.70;;
3543;SDS011;1786;52.870;9.578;2023-08-31T15:36:04;1.80;;;0.90;;
3543;SDS011;1786;52.870;9.578;2023-08-31T15:38:32;0.87;;;0.77;;
3543;SDS011;1786;52.870;9.578;2023-08-31T15:41:00;0.60;;;0.60;;